sensor_id;sensor_type;location;lat;lon;timestamp;temperature;humidity
4050;DHT22;2039;50.894;6.888;2022-08-20T00:00:47;23.10;99.90
4050;DHT22;2039;50.894;6.888;2022-08-20T00:03:26;23.00;99.90
4050;DHT22;2039;50.894;6.888;2022-08-20T00:06:06;23.00;99.90
4050;DHT22;2039;50.894;6.888;2022-08-20T00:08:32;23.10;99.90
4050;DHT22;2039;50.894;6.888;2022-08-20T00:10:59;23.00;99.90
4050;DHT22;2039;50.894;6.888;2022-08-20T00:13:30;23.00;99.90
4050;DHT22;2039;50.894;6.888;2022-08-20T00:15:56;23.10;99.90
4050;DHT22;2039;50.894;6.888;2022-08-20T00:18:23;23.00;99.90
4050;DHT22;2039;50.894;6.888;2022-08-20T00:20:51;22.90;99.90
4050;DHT22;2039;50.894;6.888;2022-08-20T00:23:18;22.90;99.90
4050;DHT22;2039;50.894;6.888;2022-08-20T00:25:44;22.80;99.90
4050;DHT22;2039;50.894;6.888;2022-08-20T00:28:10;22.80;99.90
4050;DHT22;2039;50.894;6.888;2022-08-20T00:30:38;22.70;99.90
4050;DHT22;2039;50.894;6.888;2022-08-20T00:33:08;22.60;99.90
4050;DHT22;2039;50.894;6.888;2022-08-20T00:35:40;22.60;99.90
4050;DHT22;2039;50.894;6.888;2022-08-20T00:38:07;22.50;99.90
4050;DHT22;2039;50.894;6.888;2022-08-20T00:40:46;22.50;99.90
4050;DHT22;2039;50.894;6.888;2022-08-20T00:43:44;22.40;99.90
4050;DHT22;2039;50.894;6.888;2022-08-20T00:46:15;22.30;99.90
4050;DHT22;2039;50.894;6.888;2022-08-20T00:48:44;22.30;99.90
4050;DHT22;2039;50.894;6.888;2022-08-20T00:54:17;22.40;99.90
4050;DHT22;2039;50.894;6.888;2022-08-20T00:56:48;22.10;99.90
4050;DHT22;2039;50.894;6.888;2022-08-20T00:59:18;22.20;99.90
4050;DHT22;2039;50.894;6.888;2022-08-20T01:01:46;22.20;99.90
4050;DHT22;2039;50.894;6.888;2022-08-20T01:04:12;22.20;99.90
4050;DHT22;2039;50.894;6.888;2022-08-20T01:06:39;22.20;99.90
4050;DHT22;2039;50.894;6.888;2022-08-20T01:09:06;22.30;99.90
4050;DHT22;2039;50.894;6.888;2022-08-20T01:11:33;22.30;99.90
4050;DHT22;2039;50.894;6.888;2022-08-20T01:14:03;22.30;99.90
4050;DHT22;2039;50.894;6.888;2022-08-20T01:16:56;22.30;99.90
4050;DHT22;2039;50.894;6.888;2022-08-20T01:19:30;22.40;99.90
4050;DHT22;2039;50.894;6.888;2022-08-20T01:21:58;22.30;99.90
4050;DHT22;2039;50.894;6.888;2022-08-20T01:24:35;22.30;99.90
4050;DHT22;2039;50.894;6.888;2022-08-20T01:27:02;22.40;99.90
4050;DHT22;2039;50.894;6.888;2022-08-20T01:29:34;22.40;99.90
4050;DHT22;2039;50.894;6.888;2022-08-20T01:32:02;22.40;99.90
4050;DHT22;2039;50.894;6.888;2022-08-20T01:34:28;22.50;99.90
4050;DHT22;2039;50.894;6.888;2022-08-20T01:36:56;22.50;99.90
4050;DHT22;2039;50.894;6.888;2022-08-20T01:39:29;22.40;99.90
4050;DHT22;2039;50.894;6.888;2022-08-20T01:44:23;22.20;99.90
4050;DHT22;2039;50.894;6.888;2022-08-20T01:46:51;22.20;99.90
4050;DHT22;2039;50.894;6.888;2022-08-20T01:49:30;22.20;99.90
4050;DHT22;2039;50.894;6.888;2022-08-20T01:52:01;22.20;99.90
4050;DHT22;2039;50.894;6.888;2022-08-20T01:54:31;22.20;99.90
4050;DHT22;2039;50.894;6.888;2022-08-20T01:57:04;22.20;99.90
4050;DHT22;2039;50.894;6.888;2022-08-20T01:59:31;22.20;99.90
4050;DHT22;2039;50.894;6.888;2022-08-20T02:01:57;22.10;99.90
4050;DHT22;2039;50.894;6.888;2022-08-20T02:04:24;22.10;99.90
4050;DHT22;2039;50.894;6.888;2022-08-20T02:06:55;22.20;99.90
4050;DHT22;2039;50.894;6.888;2022-08-20T02:09:21;22.20;99.90
4050;DHT22;2039;50.894;6.888;2022-08-20T02:11:48;22.10;99.90
4050;DHT22;2039;50.894;6.888;2022-08-20T02:14:14;22.00;99.90
4050;DHT22;2039;50.894;6.888;2022-08-20T02:16:43;22.10;99.90
4050;DHT22;2039;50.894;6.888;2022-08-20T02:19:24;22.10;99.90
4050;DHT22;2039;50.894;6.888;2022-08-20T02:21:55;22.10;99.90
4050;DHT22;2039;50.894;6.888;2022-08-20T02:24:21;22.00;99.90
4050;DHT22;2039;50.894;6.888;2022-08-20T02:26:48;22.00;99.90
4050;DHT22;2039;50.894;6.888;2022-08-20T02:29:14;21.90;99.90
4050;DHT22;2039;50.894;6.888;2022-08-20T02:31:42;21.90;99.90
4050;DHT22;2039;50.894;6.888;2022-08-20T02:34:11;21.90;99.90
4050;DHT22;2039;50.894;6.888;2022-08-20T02:36:37;21.90;99.90
4050;DHT22;2039;50.894;6.888;2022-08-20T02:39:08;21.90;99.90
4050;DHT22;2039;50.894;6.888;2022-08-20T02:41:36;21.80;99.90
4050;DHT22;2039;50.894;6.888;2022-08-20T02:44:02;21.80;99.90
4050;DHT22;2039;50.894;6.888;2022-08-20T02:46:29;21.80;99.90
4050;DHT22;2039;50.894;6.888;2022-08-20T02:48:55;21.90;99.90
4050;DHT22;2039;50.894;6.888;2022-08-20T02:51:21;21.90;99.90
4050;DHT22;2039;50.894;6.888;2022-08-20T02:53:47;21.90;99.90
4050;DHT22;2039;50.894;6.888;2022-08-20T02:56:13;21.90;99.90
4050;DHT22;2039;50.894;6.888;2022-08-20T02:58:40;21.90;99.90
4050;DHT22;2039;50.894;6.888;2022-08-20T03:01:15;21.90;99.90
4050;DHT22;2039;50.894;6.888;2022-08-20T03:03:41;21.90;99.90
4050;DHT22;2039;50.894;6.888;2022-08-20T03:06:09;21.90;99.90
4050;DHT22;2039;50.894;6.888;2022-08-20T03:08:36;21.90;99.90
4050;DHT22;2039;50.894;6.888;2022-08-20T03:11:03;21.90;99.90
4050;DHT22;2039;50.894;6.888;2022-08-20T03:13:29;21.80;99.90
4050;DHT22;2039;50.894;6.888;2022-08-20T03:15:57;21.80;99.90
4050;DHT22;2039;50.894;6.888;2022-08-20T03:18:26;21.80;99.90
4050;DHT22;2039;50.894;6.888;2022-08-20T03:20:52;21.80;99.90
4050;DHT22;2039;50.894;6.888;2022-08-20T03:23:18;21.80;99.90
4050;DHT22;2039;50.894;6.888;2022-08-20T03:25:45;21.80;99.90
4050;DHT22;2039;50.894;6.888;2022-08-20T03:28:12;21.80;99.90
4050;DHT22;2039;50.894;6.888;2022-08-20T03:30:39;21.80;99.90
4050;DHT22;2039;50.894;6.888;2022-08-20T03:33:05;21.80;99.90
4050;DHT22;2039;50.894;6.888;2022-08-20T03:35:32;21.90;99.90
4050;DHT22;2039;50.894;6.888;2022-08-20T03:37:58;21.80;99.90
4050;DHT22;2039;50.894;6.888;2022-08-20T03:40:29;21.90;99.90
4050;DHT22;2039;50.894;6.888;2022-08-20T03:42:56;21.90;99.90
4050;DHT22;2039;50.894;6.888;2022-08-20T03:45:24;21.90;99.90
4050;DHT22;2039;50.894;6.888;2022-08-20T03:47:51;21.90;99.90
4050;DHT22;2039;50.894;6.888;2022-08-20T03:50:22;21.80;99.90
4050;DHT22;2039;50.894;6.888;2022-08-20T03:52:52;21.90;99.90
4050;DHT22;2039;50.894;6.888;2022-08-20T03:55:19;21.80;99.90
4050;DHT22;2039;50.894;6.888;2022-08-20T03:58:05;21.70;99.90
4050;DHT22;2039;50.894;6.888;2022-08-20T04:00:44;21.80;99.90
4050;DHT22;2039;50.894;6.888;2022-08-20T04:03:10;21.80;99.90
4050;DHT22;2039;50.894;6.888;2022-08-20T04:05:37;21.80;99.90
4050;DHT22;2039;50.894;6.888;2022-08-20T04:08:18;21.70;99.90
4050;DHT22;2039;50.894;6.888;2022-08-20T04:10:46;21.70;99.90
4050;DHT22;2039;50.894;6.888;2022-08-20T04:13:12;21.60;99.90
4050;DHT22;2039;50.894;6.888;2022-08-20T04:15:38;21.60;99.90
4050;DHT22;2039;50.894;6.888;2022-08-20T04:18:06;21.50;99.90
4050;DHT22;2039;50.894;6.888;2022-08-20T04:20:33;21.40;99.90
4050;DHT22;2039;50.894;6.888;2022-08-20T04:22:59;21.40;99.90
4050;DHT22;2039;50.894;6.888;2022-08-20T04:25:27;21.40;99.90
4050;DHT22;2039;50.894;6.888;2022-08-20T04:28:00;21.30;99.90
4050;DHT22;2039;50.894;6.888;2022-08-20T04:30:27;21.30;99.90
4050;DHT22;2039;50.894;6.888;2022-08-20T04:32:53;21.30;99.90
4050;DHT22;2039;50.894;6.888;2022-08-20T04:35:20;21.40;99.90
4050;DHT22;2039;50.894;6.888;2022-08-20T04:37:47;21.30;99.90
4050;DHT22;2039;50.894;6.888;2022-08-20T04:40:16;21.30;99.90
4050;DHT22;2039;50.894;6.888;2022-08-20T04:43:02;21.20;99.90
4050;DHT22;2039;50.894;6.888;2022-08-20T04:45:32;21.30;99.90
4050;DHT22;2039;50.894;6.888;2022-08-20T04:48:01;21.40;99.90
4050;DHT22;2039;50.894;6.888;2022-08-20T04:50:29;21.40;99.90
4050;DHT22;2039;50.894;6.888;2022-08-20T04:52:58;21.40;99.90
4050;DHT22;2039;50.894;6.888;2022-08-20T04:55:24;21.40;99.90
4050;DHT22;2039;50.894;6.888;2022-08-20T04:57:50;21.40;99.90
4050;DHT22;2039;50.894;6.888;2022-08-20T05:00:16;21.40;99.90
4050;DHT22;2039;50.894;6.888;2022-08-20T05:02:43;21.40;99.90
4050;DHT22;2039;50.894;6.888;2022-08-20T05:05:10;21.40;99.90
4050;DHT22;2039;50.894;6.888;2022-08-20T05:07:42;21.40;99.90
4050;DHT22;2039;50.894;6.888;2022-08-20T05:10:09;21.30;99.90
4050;DHT22;2039;50.894;6.888;2022-08-20T05:12:36;21.40;99.90
4050;DHT22;2039;50.894;6.888;2022-08-20T05:15:02;21.40;99.90
4050;DHT22;2039;50.894;6.888;2022-08-20T05:17:28;21.40;99.90
4050;DHT22;2039;50.894;6.888;2022-08-20T05:19:54;21.40;99.90
4050;DHT22;2039;50.894;6.888;2022-08-20T05:22:20;21.40;99.90
4050;DHT22;2039;50.894;6.888;2022-08-20T05:24:45;21.30;99.90
4050;DHT22;2039;50.894;6.888;2022-08-20T05:27:11;21.10;99.90
4050;DHT22;2039;50.894;6.888;2022-08-20T05:29:37;21.10;99.90
4050;DHT22;2039;50.894;6.888;2022-08-20T05:32:03;21.10;99.90
4050;DHT22;2039;50.894;6.888;2022-08-20T05:34:29;21.00;99.90
4050;DHT22;2039;50.894;6.888;2022-08-20T05:36:54;21.00;99.90
4050;DHT22;2039;50.894;6.888;2022-08-20T05:39:21;21.00;99.90
4050;DHT22;2039;50.894;6.888;2022-08-20T05:41:48;20.90;99.90
4050;DHT22;2039;50.894;6.888;2022-08-20T05:44:17;20.90;99.90
4050;DHT22;2039;50.894;6.888;2022-08-20T05:46:44;20.90;99.90
4050;DHT22;2039;50.894;6.888;2022-08-20T05:49:13;20.90;99.90
4050;DHT22;2039;50.894;6.888;2022-08-20T05:51:40;20.80;99.90
4050;DHT22;2039;50.894;6.888;2022-08-20T05:54:06;20.80;99.90
4050;DHT22;2039;50.894;6.888;2022-08-20T05:56:32;20.70;99.90
4050;DHT22;2039;50.894;6.888;2022-08-20T05:58:59;20.70;99.90
4050;DHT22;2039;50.894;6.888;2022-08-20T06:01:27;20.60;99.90
4050;DHT22;2039;50.894;6.888;2022-08-20T06:03:53;20.60;99.90
4050;DHT22;2039;50.894;6.888;2022-08-20T06:06:37;20.60;99.90
4050;DHT22;2039;50.894;6.888;2022-08-20T06:09:03;20.60;99.90
4050;DHT22;2039;50.894;6.888;2022-08-20T06:11:28;20.50;99.90
4050;DHT22;2039;50.894;6.888;2022-08-20T06:13:54;20.40;99.90
4050;DHT22;2039;50.894;6.888;2022-08-20T06:16:20;20.50;99.90
4050;DHT22;2039;50.894;6.888;2022-08-20T06:18:45;20.50;99.90
4050;DHT22;2039;50.894;6.888;2022-08-20T06:21:11;20.40;99.90
4050;DHT22;2039;50.894;6.888;2022-08-20T06:23:37;20.50;99.90
4050;DHT22;2039;50.894;6.888;2022-08-20T06:26:02;20.50;99.90
4050;DHT22;2039;50.894;6.888;2022-08-20T06:28:28;20.60;99.90
4050;DHT22;2039;50.894;6.888;2022-08-20T06:30:54;20.60;99.90
4050;DHT22;2039;50.894;6.888;2022-08-20T06:33:19;20.60;99.90
4050;DHT22;2039;50.894;6.888;2022-08-20T06:35:45;20.60;99.90
4050;DHT22;2039;50.894;6.888;2022-08-20T06:38:11;20.70;99.90
4050;DHT22;2039;50.894;6.888;2022-08-20T06:40:39;20.60;99.90
4050;DHT22;2039;50.894;6.888;2022-08-20T06:43:05;20.60;99.90
4050;DHT22;2039;50.894;6.888;2022-08-20T06:45:33;20.60;99.90
4050;DHT22;2039;50.894;6.888;2022-08-20T06:48:08;20.60;99.90
4050;DHT22;2039;50.894;6.888;2022-08-20T06:50:36;20.60;99.90
4050;DHT22;2039;50.894;6.888;2022-08-20T06:53:08;20.60;99.90
4050;DHT22;2039;50.894;6.888;2022-08-20T06:55:36;20.60;99.90
4050;DHT22;2039;50.894;6.888;2022-08-20T06:58:05;20.60;99.90
4050;DHT22;2039;50.894;6.888;2022-08-20T07:00:32;20.60;99.90
4050;DHT22;2039;50.894;6.888;2022-08-20T07:02:59;20.60;99.90
4050;DHT22;2039;50.894;6.888;2022-08-20T07:05:31;20.50;99.90
4050;DHT22;2039;50.894;6.888;2022-08-20T07:07:57;20.60;99.90
4050;DHT22;2039;50.894;6.888;2022-08-20T07:10:24;20.50;99.90
4050;DHT22;2039;50.894;6.888;2022-08-20T07:12:50;20.60;99.90
4050;DHT22;2039;50.894;6.888;2022-08-20T07:15:18;20.60;99.90
4050;DHT22;2039;50.894;6.888;2022-08-20T07:17:49;20.60;99.90
4050;DHT22;2039;50.894;6.888;2022-08-20T07:20:16;20.60;99.90
4050;DHT22;2039;50.894;6.888;2022-08-20T07:22:42;20.60;99.90
4050;DHT22;2039;50.894;6.888;2022-08-20T07:25:10;20.60;99.90
4050;DHT22;2039;50.894;6.888;2022-08-20T07:27:37;20.70;99.90
4050;DHT22;2039;50.894;6.888;2022-08-20T07:30:05;20.60;99.90
4050;DHT22;2039;50.894;6.888;2022-08-20T07:32:50;20.50;99.90
4050;DHT22;2039;50.894;6.888;2022-08-20T07:35:17;20.50;99.90
4050;DHT22;2039;50.894;6.888;2022-08-20T07:37:45;20.50;99.90
4050;DHT22;2039;50.894;6.888;2022-08-20T07:40:23;20.60;99.90
4050;DHT22;2039;50.894;6.888;2022-08-20T07:42:49;20.60;99.90
4050;DHT22;2039;50.894;6.888;2022-08-20T07:45:16;20.70;99.90
4050;DHT22;2039;50.894;6.888;2022-08-20T07:47:47;20.70;99.90
4050;DHT22;2039;50.894;6.888;2022-08-20T07:50:17;20.70;99.90
4050;DHT22;2039;50.894;6.888;2022-08-20T07:52:44;20.80;99.90
4050;DHT22;2039;50.894;6.888;2022-08-20T07:55:12;20.80;99.90
4050;DHT22;2039;50.894;6.888;2022-08-20T07:57:39;20.80;99.90
4050;DHT22;2039;50.894;6.888;2022-08-20T08:00:07;20.70;99.90
4050;DHT22;2039;50.894;6.888;2022-08-20T08:02:36;20.70;99.90
4050;DHT22;2039;50.894;6.888;2022-08-20T08:05:06;20.60;99.90
4050;DHT22;2039;50.894;6.888;2022-08-20T08:07:33;20.60;99.90
4050;DHT22;2039;50.894;6.888;2022-08-20T08:10:00;20.70;99.90
4050;DHT22;2039;50.894;6.888;2022-08-20T08:12:34;20.70;99.90
4050;DHT22;2039;50.894;6.888;2022-08-20T08:15:03;20.80;99.90
4050;DHT22;2039;50.894;6.888;2022-08-20T08:17:29;20.90;99.90
4050;DHT22;2039;50.894;6.888;2022-08-20T08:19:56;20.90;99.90
4050;DHT22;2039;50.894;6.888;2022-08-20T08:22:23;21.00;99.90
4050;DHT22;2039;50.894;6.888;2022-08-20T08:24:49;21.20;99.90
4050;DHT22;2039;50.894;6.888;2022-08-20T08:27:15;21.40;99.90
4050;DHT22;2039;50.894;6.888;2022-08-20T08:29:44;21.40;99.90
4050;DHT22;2039;50.894;6.888;2022-08-20T08:32:10;21.50;99.90
4050;DHT22;2039;50.894;6.888;2022-08-20T08:34:36;21.50;99.90
4050;DHT22;2039;50.894;6.888;2022-08-20T08:37:03;21.40;99.90
4050;DHT22;2039;50.894;6.888;2022-08-20T08:39:30;21.50;99.90
4050;DHT22;2039;50.894;6.888;2022-08-20T08:41:59;21.60;99.90
4050;DHT22;2039;50.894;6.888;2022-08-20T08:44:33;21.60;99.90
4050;DHT22;2039;50.894;6.888;2022-08-20T08:47:03;21.60;99.90
4050;DHT22;2039;50.894;6.888;2022-08-20T08:49:34;21.60;99.90
4050;DHT22;2039;50.894;6.888;2022-08-20T08:52:04;21.60;99.90
4050;DHT22;2039;50.894;6.888;2022-08-20T08:54:33;21.60;99.90
4050;DHT22;2039;50.894;6.888;2022-08-20T08:57:00;21.60;99.90
4050;DHT22;2039;50.894;6.888;2022-08-20T08:59:29;21.70;99.90
4050;DHT22;2039;50.894;6.888;2022-08-20T09:01:57;21.90;99.90
4050;DHT22;2039;50.894;6.888;2022-08-20T09:04:32;21.90;99.90
4050;DHT22;2039;50.894;6.888;2022-08-20T09:07:01;21.90;99.90
4050;DHT22;2039;50.894;6.888;2022-08-20T09:09:33;21.90;99.90
4050;DHT22;2039;50.894;6.888;2022-08-20T09:12:15;21.90;99.90
4050;DHT22;2039;50.894;6.888;2022-08-20T09:14:44;22.10;99.90
4050;DHT22;2039;50.894;6.888;2022-08-20T09:17:11;22.20;99.90
4050;DHT22;2039;50.894;6.888;2022-08-20T09:19:37;22.30;99.90
4050;DHT22;2039;50.894;6.888;2022-08-20T09:22:07;22.20;99.90
4050;DHT22;2039;50.894;6.888;2022-08-20T09:24:33;22.30;99.90
4050;DHT22;2039;50.894;6.888;2022-08-20T09:26:59;22.20;99.90
4050;DHT22;2039;50.894;6.888;2022-08-20T09:29:25;22.30;99.90
4050;DHT22;2039;50.894;6.888;2022-08-20T09:31:51;22.50;99.90
4050;DHT22;2039;50.894;6.888;2022-08-20T09:34:27;22.50;99.90
4050;DHT22;2039;50.894;6.888;2022-08-20T09:36:53;22.50;99.90
4050;DHT22;2039;50.894;6.888;2022-08-20T09:39:18;22.60;99.90
4050;DHT22;2039;50.894;6.888;2022-08-20T09:41:44;22.50;99.30
4050;DHT22;2039;50.894;6.888;2022-08-20T09:44:10;22.40;99.00
4050;DHT22;2039;50.894;6.888;2022-08-20T09:46:36;22.30;99.90
4050;DHT22;2039;50.894;6.888;2022-08-20T09:49:02;22.30;99.90
4050;DHT22;2039;50.894;6.888;2022-08-20T09:51:28;22.40;99.90
4050;DHT22;2039;50.894;6.888;2022-08-20T09:53:53;22.40;99.90
4050;DHT22;2039;50.894;6.888;2022-08-20T09:56:19;22.30;99.90
4050;DHT22;2039;50.894;6.888;2022-08-20T09:58:49;22.40;99.90
4050;DHT22;2039;50.894;6.888;2022-08-20T10:01:17;22.40;99.90
4050;DHT22;2039;50.894;6.888;2022-08-20T10:03:44;22.40;99.90
4050;DHT22;2039;50.894;6.888;2022-08-20T10:06:14;22.40;99.90
4050;DHT22;2039;50.894;6.888;2022-08-20T10:08:42;22.40;99.90
4050;DHT22;2039;50.894;6.888;2022-08-20T10:11:08;22.40;99.90
4050;DHT22;2039;50.894;6.888;2022-08-20T10:13:34;22.50;99.90
4050;DHT22;2039;50.894;6.888;2022-08-20T10:16:00;22.40;99.90
4050;DHT22;2039;50.894;6.888;2022-08-20T10:18:25;22.30;99.90
4050;DHT22;2039;50.894;6.888;2022-08-20T10:20:51;22.30;99.90
4050;DHT22;2039;50.894;6.888;2022-08-20T10:23:17;22.50;99.90
4050;DHT22;2039;50.894;6.888;2022-08-20T10:25:42;22.60;96.10
4050;DHT22;2039;50.894;6.888;2022-08-20T10:28:08;22.60;96.80
4050;DHT22;2039;50.894;6.888;2022-08-20T10:30:34;22.70;94.80
4050;DHT22;2039;50.894;6.888;2022-08-20T10:33:00;22.70;95.30
4050;DHT22;2039;50.894;6.888;2022-08-20T10:35:27;22.80;93.10
4050;DHT22;2039;50.894;6.888;2022-08-20T10:37:53;22.70;95.10
4050;DHT22;2039;50.894;6.888;2022-08-20T10:40:19;22.80;93.20
4050;DHT22;2039;50.894;6.888;2022-08-20T10:42:45;22.80;92.50
4050;DHT22;2039;50.894;6.888;2022-08-20T10:45:12;22.80;93.60
4050;DHT22;2039;50.894;6.888;2022-08-20T10:47:38;23.00;90.10
4050;DHT22;2039;50.894;6.888;2022-08-20T10:50:08;23.10;91.50
4050;DHT22;2039;50.894;6.888;2022-08-20T10:52:35;23.30;92.20
4050;DHT22;2039;50.894;6.888;2022-08-20T10:55:01;23.40;90.40
4050;DHT22;2039;50.894;6.888;2022-08-20T10:57:29;23.70;83.40
4050;DHT22;2039;50.894;6.888;2022-08-20T10:59:57;23.90;71.90
4050;DHT22;2039;50.894;6.888;2022-08-20T11:02:24;24.10;62.30
4050;DHT22;2039;50.894;6.888;2022-08-20T11:04:50;24.10;65.50
4050;DHT22;2039;50.894;6.888;2022-08-20T11:09:45;24.30;59.00
4050;DHT22;2039;50.894;6.888;2022-08-20T11:12:11;24.30;58.70
4050;DHT22;2039;50.894;6.888;2022-08-20T11:14:37;24.20;52.60
4050;DHT22;2039;50.894;6.888;2022-08-20T11:17:03;24.20;56.50
4050;DHT22;2039;50.894;6.888;2022-08-20T11:19:29;24.30;56.40
4050;DHT22;2039;50.894;6.888;2022-08-20T11:21:55;24.30;44.70
4050;DHT22;2039;50.894;6.888;2022-08-20T11:24:21;24.40;48.20
4050;DHT22;2039;50.894;6.888;2022-08-20T11:26:48;24.50;45.10
4050;DHT22;2039;50.894;6.888;2022-08-20T11:29:15;24.50;46.60
4050;DHT22;2039;50.894;6.888;2022-08-20T11:31:41;24.60;49.90
4050;DHT22;2039;50.894;6.888;2022-08-20T11:34:07;24.60;45.40
4050;DHT22;2039;50.894;6.888;2022-08-20T11:36:33;24.60;49.70
4050;DHT22;2039;50.894;6.888;2022-08-20T11:38:59;24.40;47.50
4050;DHT22;2039;50.894;6.888;2022-08-20T11:41:25;24.50;50.60
4050;DHT22;2039;50.894;6.888;2022-08-20T11:43:51;24.70;44.00
4050;DHT22;2039;50.894;6.888;2022-08-20T11:46:16;24.90;46.50
4050;DHT22;2039;50.894;6.888;2022-08-20T11:48:42;25.10;29.30
4050;DHT22;2039;50.894;6.888;2022-08-20T11:51:08;25.40;20.40
4050;DHT22;2039;50.894;6.888;2022-08-20T11:53:34;25.60;10.40
4050;DHT22;2039;50.894;6.888;2022-08-20T11:56:00;25.80;10.50
4050;DHT22;2039;50.894;6.888;2022-08-20T11:58:26;25.90;9.10
4050;DHT22;2039;50.894;6.888;2022-08-20T12:00:52;25.90;1.00
4050;DHT22;2039;50.894;6.888;2022-08-20T12:03:18;25.80;8.20
4050;DHT22;2039;50.894;6.888;2022-08-20T12:05:44;25.90;1.00
4050;DHT22;2039;50.894;6.888;2022-08-20T12:08:11;25.90;1.00
4050;DHT22;2039;50.894;6.888;2022-08-20T12:10:37;26.10;3.60
4050;DHT22;2039;50.894;6.888;2022-08-20T12:13:04;26.40;1.00
4050;DHT22;2039;50.894;6.888;2022-08-20T12:15:33;26.40;1.00
4050;DHT22;2039;50.894;6.888;2022-08-20T12:17:59;26.40;1.00
4050;DHT22;2039;50.894;6.888;2022-08-20T12:20:25;26.30;1.00
4050;DHT22;2039;50.894;6.888;2022-08-20T12:22:51;26.30;1.00
4050;DHT22;2039;50.894;6.888;2022-08-20T12:25:19;26.30;1.00
4050;DHT22;2039;50.894;6.888;2022-08-20T12:27:46;26.30;1.00
4050;DHT22;2039;50.894;6.888;2022-08-20T12:30:15;26.30;1.00
4050;DHT22;2039;50.894;6.888;2022-08-20T12:32:41;26.30;1.00
4050;DHT22;2039;50.894;6.888;2022-08-20T12:35:08;26.30;1.00
4050;DHT22;2039;50.894;6.888;2022-08-20T12:37:34;26.50;1.00
4050;DHT22;2039;50.894;6.888;2022-08-20T12:40:03;26.40;1.00
4050;DHT22;2039;50.894;6.888;2022-08-20T12:42:30;26.30;1.00
4050;DHT22;2039;50.894;6.888;2022-08-20T12:44:56;26.30;1.00
4050;DHT22;2039;50.894;6.888;2022-08-20T12:47:31;26.10;1.00
4050;DHT22;2039;50.894;6.888;2022-08-20T12:50:04;25.90;1.00
4050;DHT22;2039;50.894;6.888;2022-08-20T12:52:31;25.60;1.00
4050;DHT22;2039;50.894;6.888;2022-08-20T12:54:57;25.60;1.00
4050;DHT22;2039;50.894;6.888;2022-08-20T12:59:56;25.80;1.00
4050;DHT22;2039;50.894;6.888;2022-08-20T13:02:23;25.70;1.00
4050;DHT22;2039;50.894;6.888;2022-08-20T13:04:49;25.70;1.00
4050;DHT22;2039;50.894;6.888;2022-08-20T13:07:15;25.90;1.00
4050;DHT22;2039;50.894;6.888;2022-08-20T13:09:42;26.00;1.00
4050;DHT22;2039;50.894;6.888;2022-08-20T13:12:08;26.00;1.00
4050;DHT22;2039;50.894;6.888;2022-08-20T13:14:35;26.20;1.00
4050;DHT22;2039;50.894;6.888;2022-08-20T13:17:02;26.30;1.00
4050;DHT22;2039;50.894;6.888;2022-08-20T13:19:29;26.40;1.00
4050;DHT22;2039;50.894;6.888;2022-08-20T13:21:55;26.60;1.00
4050;DHT22;2039;50.894;6.888;2022-08-20T13:24:21;26.80;1.00
4050;DHT22;2039;50.894;6.888;2022-08-20T13:26:48;26.70;1.00
4050;DHT22;2039;50.894;6.888;2022-08-20T13:29:14;26.80;1.00
4050;DHT22;2039;50.894;6.888;2022-08-20T13:31:41;26.80;1.00
4050;DHT22;2039;50.894;6.888;2022-08-20T13:34:07;26.80;1.00
4050;DHT22;2039;50.894;6.888;2022-08-20T13:36:34;26.70;1.00
4050;DHT22;2039;50.894;6.888;2022-08-20T13:39:02;26.80;1.00
4050;DHT22;2039;50.894;6.888;2022-08-20T13:41:29;26.90;1.00
4050;DHT22;2039;50.894;6.888;2022-08-20T13:43:54;26.90;1.00
4050;DHT22;2039;50.894;6.888;2022-08-20T13:46:20;26.60;1.00
4050;DHT22;2039;50.894;6.888;2022-08-20T13:48:46;26.10;1.00
4050;DHT22;2039;50.894;6.888;2022-08-20T13:51:12;26.20;1.00
4050;DHT22;2039;50.894;6.888;2022-08-20T13:53:38;26.10;1.00
4050;DHT22;2039;50.894;6.888;2022-08-20T13:56:03;26.00;1.00
4050;DHT22;2039;50.894;6.888;2022-08-20T13:58:29;26.10;1.00
4050;DHT22;2039;50.894;6.888;2022-08-20T14:00:55;26.20;1.00
4050;DHT22;2039;50.894;6.888;2022-08-20T14:03:20;26.30;1.00
4050;DHT22;2039;50.894;6.888;2022-08-20T14:05:47;26.30;1.00
4050;DHT22;2039;50.894;6.888;2022-08-20T14:08:19;26.30;1.00
4050;DHT22;2039;50.894;6.888;2022-08-20T14:10:46;26.40;1.00
4050;DHT22;2039;50.894;6.888;2022-08-20T14:13:15;26.50;1.00
4050;DHT22;2039;50.894;6.888;2022-08-20T14:15:42;26.50;1.00
4050;DHT22;2039;50.894;6.888;2022-08-20T14:18:08;26.70;1.00
4050;DHT22;2039;50.894;6.888;2022-08-20T14:20:34;26.70;1.00
4050;DHT22;2039;50.894;6.888;2022-08-20T14:23:00;26.60;1.00
4050;DHT22;2039;50.894;6.888;2022-08-20T14:25:27;26.50;1.00
4050;DHT22;2039;50.894;6.888;2022-08-20T14:27:53;26.60;1.00
4050;DHT22;2039;50.894;6.888;2022-08-20T14:30:24;26.60;1.00
4050;DHT22;2039;50.894;6.888;2022-08-20T14:32:50;26.70;1.00
4050;DHT22;2039;50.894;6.888;2022-08-20T14:35:16;26.70;1.00
4050;DHT22;2039;50.894;6.888;2022-08-20T14:37:46;26.70;1.00
4050;DHT22;2039;50.894;6.888;2022-08-20T14:40:15;26.70;1.00
4050;DHT22;2039;50.894;6.888;2022-08-20T14:42:41;26.50;1.00
4050;DHT22;2039;50.894;6.888;2022-08-20T14:45:09;26.50;1.00
4050;DHT22;2039;50.894;6.888;2022-08-20T14:47:48;26.40;1.00
4050;DHT22;2039;50.894;6.888;2022-08-20T14:50:26;26.50;1.00
4050;DHT22;2039;50.894;6.888;2022-08-20T14:52:53;26.60;1.00
4050;DHT22;2039;50.894;6.888;2022-08-20T14:55:22;26.70;1.00
4050;DHT22;2039;50.894;6.888;2022-08-20T14:57:48;26.90;1.00
4050;DHT22;2039;50.894;6.888;2022-08-20T15:00:21;26.90;1.00
4050;DHT22;2039;50.894;6.888;2022-08-20T15:02:48;27.20;1.00
4050;DHT22;2039;50.894;6.888;2022-08-20T15:05:14;27.20;1.00
4050;DHT22;2039;50.894;6.888;2022-08-20T15:07:43;27.20;1.00
4050;DHT22;2039;50.894;6.888;2022-08-20T15:10:15;27.20;1.00
4050;DHT22;2039;50.894;6.888;2022-08-20T15:12:42;27.40;1.00
4050;DHT22;2039;50.894;6.888;2022-08-20T15:15:09;27.50;1.00
4050;DHT22;2039;50.894;6.888;2022-08-20T15:17:35;27.40;1.00
4050;DHT22;2039;50.894;6.888;2022-08-20T15:20:05;27.60;1.00
4050;DHT22;2039;50.894;6.888;2022-08-20T15:22:39;27.60;1.00
4050;DHT22;2039;50.894;6.888;2022-08-20T15:25:07;27.60;1.00
4050;DHT22;2039;50.894;6.888;2022-08-20T15:27:33;27.60;1.00
4050;DHT22;2039;50.894;6.888;2022-08-20T15:30:04;27.70;1.00
4050;DHT22;2039;50.894;6.888;2022-08-20T15:32:31;27.80;1.00
4050;DHT22;2039;50.894;6.888;2022-08-20T15:34:57;27.80;1.00
4050;DHT22;2039;50.894;6.888;2022-08-20T15:37:23;27.90;1.00
4050;DHT22;2039;50.894;6.888;2022-08-20T15:39:50;27.80;1.00
4050;DHT22;2039;50.894;6.888;2022-08-20T15:42:17;27.70;1.00
4050;DHT22;2039;50.894;6.888;2022-08-20T15:44:43;27.70;1.00
4050;DHT22;2039;50.894;6.888;2022-08-20T15:47:28;27.60;1.00
4050;DHT22;2039;50.894;6.888;2022-08-20T15:50:08;27.80;1.00
4050;DHT22;2039;50.894;6.888;2022-08-20T15:52:41;28.10;1.00
4050;DHT22;2039;50.894;6.888;2022-08-20T15:55:12;28.60;1.00
4050;DHT22;2039;50.894;6.888;2022-08-20T16:00:24;29.30;1.00
4050;DHT22;2039;50.894;6.888;2022-08-20T16:05:52;30.00;1.00
4050;DHT22;2039;50.894;6.888;2022-08-20T16:08:42;30.70;1.00
4050;DHT22;2039;50.894;6.888;2022-08-20T16:13:55;31.00;1.00
4050;DHT22;2039;50.894;6.888;2022-08-20T16:16:33;31.10;1.00
4050;DHT22;2039;50.894;6.888;2022-08-20T16:19:00;31.30;1.00
4050;DHT22;2039;50.894;6.888;2022-08-20T16:21:35;30.90;1.00
4050;DHT22;2039;50.894;6.888;2022-08-20T16:24:02;30.40;1.00
4050;DHT22;2039;50.894;6.888;2022-08-20T16:40:54;30.00;1.00
4050;DHT22;2039;50.894;6.888;2022-08-20T16:43:30;29.50;1.00
4050;DHT22;2039;50.894;6.888;2022-08-20T16:46:24;29.50;1.00